createdAt,value
2023-03-26T00:01:46.938Z,100.00
2023-03-26T00:04:19.751Z,100.00
2023-03-26T00:06:50.405Z,96.29
2023-03-26T00:09:19.330Z,94.61
2023-03-26T00:11:47.486Z,93.22
2023-03-26T00:14:17.993Z,94.53
2023-03-26T00:16:47.674Z,95.37
2023-03-26T00:19:16.045Z,95.77
2023-03-26T00:21:43.736Z,96.41
2023-03-26T00:24:16.394Z,97.09
2023-03-26T00:26:48.633Z,99.59
2023-03-26T00:29:18.729Z,100.00
2023-03-26T00:31:46.822Z,100.00
2023-03-26T00:34:18.618Z,100.00
2023-03-26T00:36:47.536Z,100.00
2023-03-26T00:39:15.354Z,100.00
2023-03-26T00:41:43.261Z,100.00
2023-03-26T00:44:11.611Z,100.00
2023-03-26T00:46:40.521Z,100.00
2023-03-26T00:49:11.001Z,100.00
2023-03-26T00:51:39.528Z,100.00
2023-03-26T00:54:11.196Z,100.00
2023-03-26T00:56:39.098Z,100.00
2023-03-26T00:59:09.301Z,100.00
2023-03-26T01:01:37.875Z,100.00
2023-03-26T01:04:28.451Z,100.00
2023-03-26T01:07:04.257Z,100.00
2023-03-26T01:09:36.827Z,100.00
2023-03-26T01:12:09.000Z,100.00
2023-03-26T01:14:38.741Z,100.00
2023-03-26T01:17:07.798Z,100.00
2023-03-26T01:19:45.768Z,100.00
2023-03-26T01:22:25.854Z,100.00
2023-03-26T01:24:56.782Z,100.00
2023-03-26T01:27:46.499Z,100.00
2023-03-26T01:30:49.710Z,100.00
2023-03-26T01:33:26.323Z,100.00
2023-03-26T01:36:11.364Z,100.00
2023-03-26T01:38:50.032Z,100.00
2023-03-26T01:41:44.403Z,100.00
2023-03-26T01:44:45.812Z,100.00
2023-03-26T01:47:15.524Z,100.00
2023-03-26T01:49:43.880Z,100.00
2023-03-26T01:52:16.228Z,100.00
2023-03-26T01:54:46.733Z,100.00
2023-03-26T01:57:55.709Z,100.00
2023-03-26T02:00:38.030Z,100.00
2023-03-26T02:03:18.549Z,100.00
2023-03-26T02:05:57.991Z,100.00
2023-03-26T02:08:35.629Z,100.00
2023-03-26T02:11:11.858Z,100.00
2023-03-26T02:13:41.394Z,100.00
2023-03-26T02:16:16.596Z,100.00
2023-03-26T02:18:45.916Z,100.00
2023-03-26T02:21:21.465Z,100.00
2023-03-26T02:23:57.872Z,100.00
2023-03-26T02:26:26.448Z,100.00
2023-03-26T02:29:01.724Z,100.00
2023-03-26T02:31:30.592Z,100.00
2023-03-26T02:33:58.857Z,100.00
2023-03-26T02:36:29.324Z,100.00
2023-03-26T02:39:01.143Z,100.00
2023-03-26T02:41:32.099Z,100.00
2023-03-26T02:44:07.495Z,100.00
2023-03-26T02:46:55.574Z,100.00
2023-03-26T02:49:42.756Z,100.00
2023-03-26T02:52:17.133Z,100.00
2023-03-26T02:54:44.844Z,100.00
2023-03-26T02:57:18.909Z,100.00
2023-03-26T03:00:22.885Z,100.00
2023-03-26T03:03:09.616Z,100.00
2023-03-26T03:06:00.801Z,100.00
2023-03-26T03:08:37.024Z,100.00
2023-03-26T03:11:26.595Z,100.00
2023-03-26T03:13:55.488Z,100.00
2023-03-26T03:16:27.156Z,100.00
2023-03-26T03:18:58.176Z,100.00
2023-03-26T03:21:38.564Z,100.00
2023-03-26T03:24:08.717Z,100.00
2023-03-26T03:26:42.462Z,100.00
2023-03-26T03:29:33.524Z,100.00
2023-03-26T03:32:23.244Z,100.00
2023-03-26T03:34:53.949Z,100.00
2023-03-26T03:37:23.460Z,100.00
2023-03-26T03:39:55.051Z,100.00
2023-03-26T03:42:25.338Z,100.00
2023-03-26T03:44:55.924Z,100.00
2023-03-26T03:47:44.612Z,100.00
2023-03-26T03:50:14.093Z,100.00
2023-03-26T03:52:53.400Z,100.00
2023-03-26T03:55:24.135Z,100.00
2023-03-26T03:57:54.930Z,100.00
2023-03-26T04:00:25.604Z,100.00
2023-03-26T04:03:34.264Z,100.00
2023-03-26T04:06:07.471Z,100.00
2023-03-26T04:08:35.703Z,100.00
2023-03-26T04:11:06.480Z,100.00
2023-03-26T04:13:35.028Z,100.00
2023-03-26T04:16:13.672Z,100.00
2023-03-26T04:18:41.683Z,100.00
2023-03-26T04:21:15.959Z,100.00
2023-03-26T04:23:45.836Z,100.00
2023-03-26T04:26:50.105Z,100.00
2023-03-26T04:29:22.104Z,100.00
2023-03-26T04:31:51.701Z,100.00
2023-03-26T04:34:26.828Z,100.00
2023-03-26T04:37:07.689Z,100.00
2023-03-26T04:39:44.918Z,100.00
2023-03-26T04:42:33.491Z,100.00
2023-03-26T04:45:11.298Z,100.00
2023-03-26T04:47:42.526Z,100.00
2023-03-26T04:50:11.341Z,100.00
2023-03-26T04:52:42.608Z,100.00
2023-03-26T04:55:42.893Z,100.00
2023-03-26T04:58:19.479Z,100.00
2023-03-26T05:01:10.117Z,100.00
2023-03-26T05:03:41.491Z,100.00
2023-03-26T05:06:14.315Z,100.00
2023-03-26T05:08:42.802Z,100.00
2023-03-26T05:11:18.826Z,100.00
2023-03-26T05:13:47.224Z,100.00
2023-03-26T05:16:15.914Z,100.00
2023-03-26T05:18:59.182Z,100.00
2023-03-26T05:21:31.848Z,100.00
2023-03-26T05:24:00.643Z,100.00
2023-03-26T05:26:29.328Z,100.00
2023-03-26T05:28:57.737Z,100.00
2023-03-26T05:31:31.748Z,100.00
2023-03-26T05:34:00.909Z,100.00
2023-03-26T05:36:30.795Z,100.00
2023-03-26T05:39:09.123Z,100.00
2023-03-26T05:42:00.307Z,100.00
2023-03-26T05:44:37.902Z,100.00
2023-03-26T05:47:15.810Z,100.00
2023-03-26T05:49:44.361Z,100.00
2023-03-26T05:52:15.306Z,100.00
2023-03-26T05:55:13.337Z,100.00
2023-03-26T05:57:59.368Z,100.00
2023-03-26T06:00:48.928Z,100.00
2023-03-26T06:03:26.954Z,100.00
2023-03-26T06:06:09.618Z,100.00
2023-03-26T06:09:01.692Z,100.00
2023-03-26T06:11:32.163Z,100.00
2023-03-26T06:14:01.702Z,100.00
2023-03-26T06:16:30.174Z,100.00
2023-03-26T06:19:10.686Z,100.00
2023-03-26T06:21:55.796Z,100.00
2023-03-26T06:24:27.710Z,99.99
2023-03-26T06:27:19.029Z,99.33
2023-03-26T06:29:50.406Z,96.15
2023-03-26T06:32:47.218Z,90.29
2023-03-26T06:35:21.028Z,88.09
2023-03-26T06:37:48.733Z,85.12
2023-03-26T06:40:16.459Z,83.94
2023-03-26T06:43:08.576Z,81.30
2023-03-26T06:46:07.829Z,79.32
2023-03-26T06:48:42.308Z,80.15
2023-03-26T06:51:26.076Z,81.95
2023-03-26T06:54:14.794Z,84.17
2023-03-26T06:56:54.817Z,84.46
2023-03-26T06:59:23.414Z,82.74
2023-03-26T07:02:11.794Z,82.54
2023-03-26T07:05:18.319Z,80.27
2023-03-26T07:08:05.901Z,78.71
2023-03-26T07:10:52.086Z,77.21
2023-03-26T07:13:40.127Z,75.61
2023-03-26T07:16:26.561Z,73.29
2023-03-26T07:19:19.872Z,72.36
2023-03-26T07:21:49.294Z,68.26
2023-03-26T07:24:43.223Z,65.07
2023-03-26T07:27:50.415Z,65.34
2023-03-26T07:30:55.444Z,60.41
2023-03-26T07:34:11.192Z,63.86
2023-03-26T07:37:20.595Z,65.35
2023-03-26T07:40:48.637Z,67.03
2023-03-26T07:43:50.474Z,66.23
2023-03-26T07:46:37.244Z,63.02
2023-03-26T07:49:34.134Z,62.37
2023-03-26T07:52:33.999Z,61.86
2023-03-26T07:55:30.608Z,59.65
2023-03-26T07:58:55.896Z,61.15
2023-03-26T08:01:54.890Z,62.60
2023-03-26T08:04:48.716Z,60.44
2023-03-26T08:07:57.935Z,58.36
2023-03-26T08:10:56.443Z,56.88
2023-03-26T08:13:51.419Z,57.51
2023-03-26T08:16:23.867Z,58.39
2023-03-26T08:19:26.223Z,56.77
2023-03-26T08:21:58.609Z,57.28
2023-03-26T08:24:36.785Z,59.53
2023-03-26T08:27:40.319Z,58.88
2023-03-26T08:30:20.993Z,57.30
2023-03-26T08:33:00.831Z,58.05
2023-03-26T08:35:29.133Z,58.90
2023-03-26T08:37:57.060Z,59.97
2023-03-26T08:41:03.127Z,58.36
2023-03-26T08:43:33.516Z,58.39
2023-03-26T08:46:20.675Z,58.23
2023-03-26T08:48:48.284Z,60.67
2023-03-26T08:51:29.147Z,58.32
2023-03-26T08:58:02.786Z,54.98
2023-03-26T09:00:36.986Z,52.61
2023-03-26T09:03:28.237Z,52.91
2023-03-26T09:06:02.941Z,50.46
2023-03-26T09:08:54.091Z,51.26
2023-03-26T09:11:40.954Z,49.57
2023-03-26T09:14:45.751Z,47.98
2023-03-26T09:17:35.768Z,48.26
2023-03-26T09:20:42.030Z,48.02
2023-03-26T09:23:33.306Z,50.73
2023-03-26T09:26:23.283Z,48.20
2023-03-26T09:29:12.701Z,47.49
2023-03-26T09:32:02.568Z,47.78
2023-03-26T09:35:03.744Z,48.94
2023-03-26T09:37:56.176Z,48.71
2023-03-26T09:40:37.161Z,47.18
2023-03-26T09:43:26.680Z,46.87
2023-03-26T09:46:18.789Z,47.65
2023-03-26T09:49:51.386Z,47.81
2023-03-26T09:52:45.103Z,47.11
2023-03-26T09:55:26.158Z,46.46
2023-03-26T09:58:06.626Z,48.37
2023-03-26T10:00:44.706Z,48.36
2023-03-26T10:03:38.645Z,47.38
2023-03-26T10:06:23.086Z,46.29
2023-03-26T10:09:13.590Z,45.45
2023-03-26T10:12:01.825Z,45.91
2023-03-26T10:14:41.114Z,44.47
2023-03-26T10:17:34.470Z,45.66
2023-03-26T10:20:27.786Z,44.89
2023-03-26T10:23:08.122Z,44.64
2023-03-26T10:26:08.434Z,45.75
2023-03-26T10:29:04.894Z,45.60
2023-03-26T10:31:34.305Z,44.96
2023-03-26T10:34:28.833Z,45.54
2023-03-26T10:37:13.773Z,46.35
2023-03-26T10:40:06.922Z,47.23
2023-03-26T10:42:50.929Z,46.80
2023-03-26T10:45:35.631Z,48.05
2023-03-26T10:48:30.391Z,49.11
2023-03-26T10:51:26.581Z,49.10
2023-03-26T10:54:08.252Z,47.64
2023-03-26T10:56:41.588Z,44.76
2023-03-26T10:59:13.382Z,42.90
2023-03-26T11:01:47.327Z,40.35
2023-03-26T11:04:46.531Z,38.30
2023-03-26T11:07:51.934Z,36.08
2023-03-26T11:10:32.169Z,33.75
2023-03-26T11:13:09.381Z,33.80
2023-03-26T11:15:50.632Z,34.54
2023-03-26T11:18:33.021Z,33.99
2023-03-26T11:21:24.196Z,33.17
2023-03-26T11:24:11.204Z,33.36
2023-03-26T11:26:56.478Z,33.67
2023-03-26T11:30:04.176Z,33.30
2023-03-26T11:32:55.218Z,34.88
2023-03-26T11:35:39.636Z,33.46
2023-03-26T11:38:22.274Z,33.14
2023-03-26T11:40:54.254Z,31.49
2023-03-26T11:43:53.114Z,31.11
2023-03-26T11:46:25.117Z,30.62
2023-03-26T11:48:59.470Z,33.41
2023-03-26T11:51:33.239Z,31.82
2023-03-26T11:54:03.268Z,30.07
2023-03-26T11:56:36.170Z,30.51
2023-03-26T11:59:53.196Z,31.01
2023-03-26T12:02:34.275Z,31.31
2023-03-26T12:05:26.800Z,30.39
2023-03-26T12:08:00.340Z,31.34
2023-03-26T12:10:35.364Z,32.54
2023-03-26T12:13:19.205Z,33.44
2023-03-26T12:15:46.907Z,33.89
2023-03-26T12:18:26.629Z,33.74
2023-03-26T12:21:08.305Z,34.23
2023-03-26T12:23:38.947Z,37.27
2023-03-26T12:26:18.541Z,37.44
2023-03-26T12:28:49.463Z,38.16
2023-03-26T12:31:19.420Z,37.45
2023-03-26T12:34:16.820Z,42.52
2023-03-26T12:36:51.259Z,40.87
2023-03-26T12:40:10.589Z,42.22
2023-03-26T12:44:48.634Z,42.77
2023-03-26T12:45:40.814Z,42.11
2023-03-26T12:48:13.502Z,43.09
2023-03-26T12:50:41.650Z,43.95
2023-03-26T12:53:24.600Z,45.16
2023-03-26T12:56:07.440Z,45.16
2023-03-26T12:58:55.393Z,45.21
2023-03-26T13:02:05.293Z,44.84
2023-03-26T13:04:42.370Z,44.99
2023-03-26T13:07:34.345Z,44.92
2023-03-26T13:10:08.658Z,45.11
2023-03-26T13:12:46.868Z,46.00
2023-03-26T13:15:25.567Z,46.92
2023-03-26T13:17:53.256Z,47.66
2023-03-26T13:21:08.966Z,48.23
2023-03-26T13:24:10.041Z,47.90
2023-03-26T13:26:47.588Z,48.45
2023-03-26T13:29:18.041Z,48.32
2023-03-26T13:32:07.874Z,47.58
2023-03-26T13:34:49.862Z,47.98
2023-03-26T13:37:25.265Z,47.78
2023-03-26T13:40:29.640Z,47.48
2023-03-26T13:43:22.586Z,47.34
2023-03-26T13:45:53.757Z,47.55
2023-03-26T13:48:30.437Z,47.56
2023-03-26T13:51:05.902Z,48.06
2023-03-26T13:54:02.884Z,49.52
2023-03-26T13:56:40.832Z,50.24
2023-03-26T13:59:15.509Z,49.80
2023-03-26T14:01:54.570Z,49.45
2023-03-26T14:04:48.103Z,50.94
2023-03-26T14:07:34.664Z,50.81
2023-03-26T14:10:11.776Z,50.04
2023-03-26T14:13:00.924Z,49.87
2023-03-26T14:15:40.615Z,49.08
2023-03-26T14:18:21.560Z,48.77
2023-03-26T14:20:56.654Z,51.08
2023-03-26T14:23:35.659Z,53.48
2023-03-26T14:26:35.835Z,54.16
2023-03-26T14:29:12.785Z,55.65
2023-03-26T14:31:59.313Z,59.08
2023-03-26T14:34:45.511Z,65.31
2023-03-26T14:37:27.925Z,65.35
2023-03-26T14:40:28.486Z,70.51
2023-03-26T14:43:23.565Z,75.48
2023-03-26T14:46:14.292Z,84.29
2023-03-26T14:48:50.124Z,84.98
2023-03-26T14:51:33.914Z,95.98
2023-03-26T14:54:12.500Z,100.00
2023-03-26T14:56:47.168Z,98.40
2023-03-26T14:59:18.228Z,100.00
2023-03-26T15:02:07.265Z,96.21
2023-03-26T15:04:57.473Z,100.00
2023-03-26T15:07:52.102Z,100.00
2023-03-26T15:10:42.312Z,100.00
2023-03-26T15:13:38.003Z,100.00
2023-03-26T15:16:17.505Z,100.00
2023-03-26T15:18:58.390Z,100.00
2023-03-26T15:21:32.558Z,100.00
2023-03-26T15:24:15.593Z,100.00
2023-03-26T15:27:16.768Z,100.00
2023-03-26T15:29:50.330Z,100.00
2023-03-26T15:32:36.835Z,100.00
2023-03-26T15:35:28.210Z,100.00
2023-03-26T15:38:38.590Z,100.00
2023-03-26T15:41:17.683Z,100.00
2023-03-26T15:47:17.323Z,100.00
2023-03-26T15:49:55.161Z,100.00
2023-03-26T15:52:28.505Z,100.00
2023-03-26T15:55:28.933Z,100.00
2023-03-26T15:58:21.579Z,100.00
2023-03-26T16:01:25.527Z,100.00
2023-03-26T16:04:22.644Z,100.00
2023-03-26T16:07:16.501Z,100.00
2023-03-26T16:10:16.271Z,100.00
2023-03-26T16:13:13.144Z,100.00
2023-03-26T16:15:42.840Z,100.00
2023-03-26T16:18:12.156Z,100.00
2023-03-26T16:20:57.280Z,100.00
2023-03-26T16:23:47.738Z,100.00
2023-03-26T16:26:31.674Z,100.00
2023-03-26T16:29:15.067Z,100.00
2023-03-26T16:32:16.496Z,100.00
2023-03-26T16:34:53.081Z,100.00
2023-03-26T16:37:36.565Z,100.00
2023-03-26T16:40:20.998Z,100.00
2023-03-26T16:43:15.643Z,100.00
2023-03-26T16:46:05.907Z,100.00
2023-03-26T16:49:04.625Z,100.00
2023-03-26T16:52:01.382Z,100.00
2023-03-26T16:54:47.963Z,100.00
2023-03-26T16:57:29.467Z,100.00
2023-03-26T17:00:19.120Z,100.00
2023-03-26T17:03:13.052Z,100.00
2023-03-26T17:05:58.862Z,100.00
2023-03-26T17:08:42.075Z,100.00
2023-03-26T17:11:38.613Z,100.00
2023-03-26T17:14:37.242Z,100.00
2023-03-26T17:17:39.098Z,100.00
2023-03-26T17:20:27.273Z,100.00
2023-03-26T17:23:10.519Z,100.00
2023-03-26T17:25:58.737Z,100.00
2023-03-26T17:28:45.716Z,100.00
2023-03-26T17:31:34.634Z,100.00
2023-03-26T17:34:47.086Z,100.00
2023-03-26T17:37:21.026Z,100.00
2023-03-26T17:39:57.872Z,100.00
2023-03-26T17:42:33.432Z,100.00
2023-03-26T17:45:25.294Z,100.00
2023-03-26T17:48:08.409Z,100.00
2023-03-26T17:50:48.565Z,100.00
2023-03-26T17:53:33.249Z,100.00
2023-03-26T17:56:07.120Z,100.00
2023-03-26T17:58:44.754Z,100.00
2023-03-26T18:01:36.197Z,100.00
2023-03-26T18:04:08.639Z,100.00
2023-03-26T18:07:09.627Z,100.00
2023-03-26T18:09:41.866Z,100.00
2023-03-26T18:12:31.774Z,100.00
2023-03-26T18:15:41.857Z,100.00
2023-03-26T18:18:26.181Z,100.00
2023-03-26T18:20:55.275Z,100.00
2023-03-26T18:23:36.806Z,100.00
2023-03-26T18:26:13.964Z,100.00
2023-03-26T18:28:51.371Z,100.00
2023-03-26T18:31:26.967Z,100.00
2023-03-26T18:33:59.201Z,100.00
2023-03-26T18:36:28.066Z,100.00
2023-03-26T18:38:59.425Z,100.00
2023-03-26T18:41:39.314Z,100.00
2023-03-26T18:44:13.870Z,100.00
2023-03-26T18:46:42.859Z,100.00
2023-03-26T18:49:15.848Z,100.00
2023-03-26T18:51:56.225Z,100.00
2023-03-26T18:54:30.061Z,100.00
2023-03-26T18:56:59.000Z,100.00
2023-03-26T18:59:32.581Z,100.00
2023-03-26T19:02:04.655Z,100.00
2023-03-26T19:04:35.063Z,100.00
2023-03-26T19:07:05.781Z,100.00
2023-03-26T19:09:34.590Z,100.00
2023-03-26T19:12:24.274Z,100.00
2023-03-26T19:15:13.377Z,100.00
2023-03-26T19:17:47.947Z,100.00
2023-03-26T19:20:21.792Z,100.00
2023-03-26T19:22:50.949Z,100.00
2023-03-26T19:25:40.924Z,100.00
2023-03-26T19:28:20.250Z,100.00
2023-03-26T19:30:56.537Z,100.00
2023-03-26T19:33:32.946Z,100.00
2023-03-26T19:36:16.167Z,100.00
2023-03-26T19:38:53.515Z,100.00
2023-03-26T19:41:36.690Z,100.00
2023-03-26T19:44:20.998Z,100.00
2023-03-26T19:46:53.983Z,100.00
2023-03-26T19:49:31.298Z,100.00
2023-03-26T19:52:26.925Z,100.00
2023-03-26T19:55:04.855Z,100.00
2023-03-26T19:57:36.506Z,100.00
2023-03-26T20:00:14.362Z,100.00
2023-03-26T20:02:43.602Z,100.00
2023-03-26T20:05:25.464Z,100.00
2023-03-26T20:07:57.380Z,100.00
2023-03-26T20:10:25.762Z,100.00
2023-03-26T20:12:54.094Z,100.00
2023-03-26T20:15:26.154Z,100.00
2023-03-26T20:17:55.309Z,100.00
2023-03-26T20:20:24.894Z,100.00
2023-03-26T20:22:54.093Z,100.00
2023-03-26T20:25:31.137Z,100.00
2023-03-26T20:27:59.496Z,100.00
2023-03-26T20:30:37.598Z,100.00
2023-03-26T20:33:12.964Z,100.00
2023-03-26T20:35:42.837Z,100.00
2023-03-26T20:38:11.329Z,100.00
2023-03-26T20:40:39.893Z,100.00
2023-03-26T20:43:21.857Z,100.00
2023-03-26T20:45:50.805Z,100.00
2023-03-26T20:48:19.044Z,100.00
2023-03-26T20:50:50.778Z,100.00
2023-03-26T20:53:20.452Z,100.00
2023-03-26T20:55:51.026Z,100.00
2023-03-26T20:58:30.861Z,100.00
2023-03-26T21:01:02.469Z,100.00
2023-03-26T21:03:30.872Z,100.00
2023-03-26T21:06:03.038Z,100.00
2023-03-26T21:08:34.446Z,100.00
2023-03-26T21:11:03.883Z,100.00
2023-03-26T21:13:47.102Z,100.00
2023-03-26T21:16:15.710Z,100.00
2023-03-26T21:18:44.561Z,100.00
2023-03-26T21:21:28.080Z,100.00
2023-03-26T21:24:05.215Z,100.00
2023-03-26T21:26:46.024Z,100.00
2023-03-26T21:29:14.808Z,100.00
2023-03-26T21:31:42.826Z,100.00
2023-03-26T21:34:13.421Z,100.00
2023-03-26T21:36:42.155Z,100.00
2023-03-26T21:39:11.506Z,100.00
2023-03-26T21:42:04.977Z,100.00
2023-03-26T21:44:34.266Z,100.00
2023-03-26T21:47:02.574Z,100.00
2023-03-26T21:49:31.638Z,100.00
2023-03-26T21:52:00.037Z,100.00
2023-03-26T21:54:30.913Z,100.00
2023-03-26T21:57:17.752Z,100.00
2023-03-26T22:00:14.349Z,100.00
2023-03-26T22:02:52.107Z,100.00
2023-03-26T22:05:27.809Z,100.00
2023-03-26T22:08:01.978Z,100.00
2023-03-26T22:10:31.092Z,100.00
2023-03-26T22:13:00.095Z,100.00
2023-03-26T22:15:30.845Z,100.00
2023-03-26T22:18:03.286Z,100.00
2023-03-26T22:20:31.869Z,100.00
2023-03-26T22:23:01.007Z,100.00
2023-03-26T22:25:29.051Z,100.00
2023-03-26T22:27:57.672Z,100.00
2023-03-26T22:30:25.803Z,100.00
2023-03-26T22:32:54.146Z,100.00
2023-03-26T22:35:22.979Z,100.00
2023-03-26T22:37:51.604Z,100.00
2023-03-26T22:40:20.644Z,100.00
2023-03-26T22:42:48.850Z,100.00
2023-03-26T22:45:17.625Z,100.00
2023-03-26T22:47:45.522Z,100.00
2023-03-26T22:50:14.112Z,100.00
2023-03-26T22:52:41.798Z,100.00
2023-03-26T22:55:11.320Z,100.00
2023-03-26T22:57:39.966Z,100.00
2023-03-26T23:00:16.489Z,100.00
2023-03-26T23:02:47.181Z,100.00
2023-03-26T23:05:18.797Z,100.00
2023-03-26T23:07:48.771Z,100.00
2023-03-26T23:10:16.932Z,100.00
2023-03-26T23:12:45.701Z,100.00
2023-03-26T23:15:14.193Z,100.00
2023-03-26T23:17:42.672Z,100.00
2023-03-26T23:20:15.040Z,100.00
2023-03-26T23:22:43.269Z,100.00
2023-03-26T23:25:12.373Z,100.00
2023-03-26T23:27:41.523Z,100.00
2023-03-26T23:30:11.144Z,100.00
2023-03-26T23:32:39.414Z,100.00
2023-03-26T23:35:07.548Z,100.00
2023-03-26T23:37:35.768Z,100.00
2023-03-26T23:40:09.897Z,100.00
2023-03-26T23:42:38.730Z,100.00
2023-03-26T23:45:08.515Z,100.00
2023-03-26T23:47:37.421Z,100.00
2023-03-26T23:50:05.880Z,100.00
2023-03-26T23:52:33.941Z,100.00
2023-03-26T23:55:02.107Z,100.00
2023-03-26T23:57:30.749Z,100.00
2023-03-26T23:59:58.720Z,100.00
